Data for 03/28/2015

Time Sea-Level Adjusted Pressure Absolute Pressure Temperature Relative Humidity Dew Point   
(mb) (inHg) (mb) (inHg) (C) (F) (%) (C) (F)
00:05 1017 30.03 846 24.98 12.2 54 37 -1.8 28.7
00:10 1017 30.03 846 24.98 12.1 53.8 37 -1.9 28.5
00:15 1017 30.03 846 24.98 12 53.7 38 -1.9 28.6
00:20 1017 30.03 846 24.98 12.2 54 36 -2.4 27.7
00:25 1017 30.03 846 24.98 12.7 54.8 36 -2.2 28.1
00:30 1017 30.03 846 24.98 12.6 54.6 36 -2 28.4
00:35 1017 30.03 846 24.98 12.3 54.1 37 -2 28.4
00:40 1017 30.03 846 24.98 12.3 54.1 37 -2.1 28.2
00:45 1017 30.03 846 24.98 12.5 54.5 36 -2.1 28.2
00:50 1017 30.03 846 24.98 12.4 54.3 37 -2 28.4
00:55 1017 30.03 846 24.98 12.2 53.9 37 -1.9 28.5
01:00 1017 30.03 846 24.98 11.9 53.5 39 -1.5 29.2
01:05 1017 30.03 846 24.98 11.6 52.8 39 -1.9 28.5
01:10 1017 30.03 846 24.98 11.5 52.7 40 -1.5 29.3
01:15 1016 30 846 24.98 10.7 51.2 43 -1.2 29.8
01:20 1016 30 846 24.98 10.1 50.1 44 -1.5 29.2
01:25 1016 30 846 24.98 9.9 49.8 45 -1.4 29.4
01:30 1016 30 846 24.98 9.4 48.8 47 -1.4 29.4
01:35 1016 30 846 24.98 9.2 48.6 46 -1.7 29
01:40 1016 30 845 24.95 9.3 48.8 46 -1.6 29.1
01:45 1016 30 845 24.95 9.4 49 45 -1.8 28.7
01:50 1016 30 845 24.95 9.8 49.6 44 -2 28.4
01:55 1016 30 845 24.95 10 50.1 43 -1.9 28.6
02:00 1016 30 845 24.95 10 50.1 42 -2.1 28.2
02:05 1016 30 845 24.95 10.4 50.7 42 -2.1 28.3
02:10 1016 30 845 24.95 10.4 50.6 42 -1.9 28.7
02:15 1016 30 845 24.95 10.3 50.5 44 -1.5 29.3
02:20 1016 30 845 24.95 10 49.9 44 -1.5 29.2
02:25 1016 30 845 24.95 9.6 49.3 46 -1.4 29.6
02:30 1016 30 845 24.95 9.6 49.2 44 -2 28.5
02:35 1016 30 845 24.95 9.8 49.7 44 -1.7 28.9
02:40 1016 30 845 24.95 9.6 49.3 45 -1.6 29.1
02:45 1016 30 845 24.95 9.3 48.8 46 -1.6 29.1
02:50 1016 30 845 24.95 8.9 47.9 48 -1.4 29.5
02:55 1016 30 845 24.95 8.5 47.2 48 -1.8 28.8
03:00 1015 29.97 845 24.95 9.1 48.4 46 -2 28.5
03:05 1015 29.97 845 24.95 9.2 48.6 46 -1.7 29
03:10 1015 29.97 845 24.95 9.1 48.4 46 -1.8 28.8
03:15 1015 29.97 845 24.95 9.1 48.4 46 -1.8 28.8
03:20 1015 29.97 844 24.92 9.4 48.8 45 -1.9 28.6
03:25 1015 29.97 844 24.92 9.4 48.8 46 -1.6 29.1
03:30 1015 29.97 844 24.92 9.3 48.8 46 -1.7 29
03:35 1015 29.97 844 24.92 9.2 48.5 46 -1.9 28.6
03:40 1015 29.97 844 24.92 9.6 49.2 44 -2.1 28.3
03:45 1014 29.94 844 24.92 9.5 49.1 45 -1.7 28.9
03:50 1014 29.94 844 24.92 9.4 48.9 44 -2.1 28.2
03:55 1014 29.94 843 24.89 9.9 49.9 42 -2.4 27.7
04:00 1014 29.94 843 24.89 10.8 51.4 38 -2.9 26.8
04:05 1014 29.94 843 24.89 11.4 52.5 39 -2.2 28.1
04:10 1014 29.94 843 24.89 11.1 52 39 -2.4 27.6
04:15 1014 29.94 843 24.89 11.3 52.4 37 -2.8 26.9
04:20 1014 29.94 843 24.89 12.2 53.9 34 -3.3 26
04:25 1014 29.94 843 24.89 12.7 54.9 32 -3.5 25.7
04:30 1014 29.94 843 24.89 13 55.4 32 -3.2 26.3
04:35 1014 29.94 843 24.89 13.1 55.7 32 -2.9 26.7
04:40 1014 29.94 843 24.89 13 55.4 32 -3.3 26.1
04:45 1014 29.94 843 24.89 12.9 55.2 32 -3.4 25.9
04:50 1014 29.94 843 24.89 12.6 54.8 33 -3.2 26.2
04:55 1013 29.91 843 24.89 12.8 55 32 -3.6 25.5
05:00 1013 29.91 843 24.89 12.9 55.2 31 -3.6 25.5
05:05 1013 29.91 843 24.89 13 55.5 30 -4.2 24.4
05:10 1013 29.91 842 24.86 14.2 57.5 27 -4.3 24.3
05:15 1013 29.91 842 24.86 14.4 58 29 -3.5 25.7
05:20 1013 29.91 842 24.86 14.2 57.5 29 -3.7 25.3
05:25 1013 29.91 842 24.86 14 57.3 29 -3.7 25.4
05:30 1013 29.91 842 24.86 14 57.1 29 -3.7 25.3
05:35 1013 29.91 842 24.86 14 57.1 28 -4 24.9
05:40 1013 29.91 842 24.86 14.2 57.6 28 -4 24.8
05:45 1013 29.91 842 24.86 14.4 57.9 28 -3.9 25
05:50 1013 29.91 842 24.86 14.5 58.1 27 -4.2 24.5
05:55 1013 29.91 842 24.86 14.7 58.4 26 -4.8 23.4
06:00 1013 29.91 842 24.86 15.1 59.1 26 -4.1 24.6
06:05 1013 29.91 842 24.86 15 58.9 26 -4.3 24.2
06:10 1013 29.91 842 24.86 15 59 26 -4.2 24.4
06:15 1013 29.91 842 24.86 15.1 59.2 25 -4.5 23.9
06:20 1013 29.91 842 24.86 15.2 59.4 25 -4.6 23.8
06:25 1013 29.91 842 24.86 15.3 59.5 25 -4.6 23.7
06:30 1013 29.91 842 24.86 15.2 59.4 25 -4.5 23.9
06:35 1013 29.91 842 24.86 15.5 59.9 24 -4.7 23.5
06:40 1013 29.91 842 24.86 15.8 60.4 25 -4.1 24.7
06:45 1013 29.91 842 24.86 15.5 59.8 26 -3.8 25.2
06:50 1012 29.88 842 24.86 15.6 60 25 -4.1 24.6
06:55 1012 29.88 842 24.86 15.9 60.6 25 -4.1 24.6
07:00 1012 29.88 842 24.86 15.9 60.6 25 -4.1 24.7
07:05 1012 29.88 841 24.83 16.1 61.1 24 -4.3 24.2
07:10 1012 29.88 841 24.83 16.1 61.1 25 -3.7 25.3
07:15 1012 29.88 841 24.83 16.1 60.9 26 -3.4 25.9
07:20 1012 29.88 841 24.83 15.9 60.7 26 -3.3 26
07:25 1012 29.88 841 24.83 15.9 60.5 27 -3.1 26.3
07:30 1012 29.88 841 24.83 15.7 60.3 27 -3.2 26.3
07:35 1012 29.88 841 24.83 15.8 60.5 26 -3.4 25.9
07:40 1012 29.88 841 24.83 15.8 60.4 27 -3.2 26.3
07:45 1012 29.88 841 24.83 15.8 60.4 27 -3.3 26.1
07:50 1012 29.88 841 24.83 15.6 60.1 27 -3.1 26.5
07:55 1012 29.88 841 24.83 15.5 59.9 27 -3.2 26.2
08:00 1012 29.88 841 24.83 15.3 59.5 27 -3.3 26
08:05 1012 29.88 841 24.83 15.3 59.5 28 -3.2 26.3
08:10 1012 29.88 841 24.83 15.2 59.3 28 -3 26.7
08:15 1012 29.88 841 24.83 15.4 59.6 27 -3.2 26.2
08:20 1011 29.85 841 24.83 16 60.9 26 -3.2 26.2
08:25 1011 29.85 841 24.83 16.6 61.9 25 -3.4 26
08:30 1011 29.85 840 24.81 16.9 62.4 25 -3 26.5
08:35 1011 29.85 840 24.81 17.2 63 24 -3.3 26
08:40 1011 29.85 840 24.81 17.5 63.5 23 -3.8 25.2
08:45 1011 29.85 840 24.81 17.5 63.6 23 -3.7 25.3
08:50 1011 29.85 840 24.81 17.7 63.9 22 -4 24.7
08:55 1011 29.85 840 24.81 17.7 63.8 22 -4.4 24
09:00 1011 29.85 840 24.81 17.9 64.2 21 -4.6 23.7
09:05 1011 29.85 840 24.81 17.9 64.1 22 -4.2 24.5
09:10 1011 29.85 840 24.81 18.1 64.5 21 -4.3 24.2
09:15 1011 29.85 840 24.81 18.2 64.7 20 -5.3 22.5
09:20 1011 29.85 840 24.81 18.5 65.3 20 -4.9 23.2
09:25 1011 29.85 840 24.81 18.7 65.7 20 -4.9 23.3
09:30 1011 29.85 840 24.81 19.4 67 18 -5.1 22.7
09:35 1011 29.85 840 24.81 19.2 66.5 19 -5.2 22.7
09:40 1011 29.85 840 24.81 18.4 65.1 19 -5.6 21.9
09:45 1011 29.85 840 24.81 18 64.4 20 -5.3 22.4
09:50 1011 29.85 840 24.81 17.9 64.1 19 -5.8 21.5
09:55 1011 29.85 840 24.81 17.9 64.2 19 -5.6 21.9
10:00 1011 29.85 840 24.81 18 64.4 20 -5.2 22.6
10:05 1011 29.85 840 24.81 17.9 64.2 20 -5.2 22.6
10:10 1011 29.85 840 24.81 17.7 63.9 20 -5.3 22.5
10:15 1011 29.85 840 24.81 17.6 63.7 20 -5.3 22.5
10:20 1011 29.85 840 24.81 17.5 63.4 20 -5.6 21.9
10:25 1011 29.85 840 24.81 17.4 63.4 20 -5.4 22.4
10:30 1011 29.85 840 24.81 17.3 63.2 22 -4.8 23.4
10:35 1011 29.85 841 24.83 17.1 62.8 22 -4.7 23.6
10:40 1013 29.91 842 24.86 13.9 57 41 1.1 33.9
10:45 1013 29.91 842 24.86 10.3 50.5 51 0.5 33
10:50 1014 29.94 843 24.89 9.2 48.6 56 1 33.8
10:55 1014 29.94 843 24.89 8.9 48 58 1.2 34.2
11:00 1014 29.94 844 24.92 8.8 47.8 57 0.9 33.6
11:05 1015 29.97 844 24.92 8.7 47.6 58 0.9 33.6
11:10 1015 29.97 844 24.92 8.6 47.5 56 0.5 32.8
11:15 1015 29.97 844 24.92 8.3 47 55 -0.2 31.7
11:20 1016 30 845 24.95 8.1 46.6 57 0.2 32.3
11:25 1016 30 845 24.95 8.1 46.6 55 -0.4 31.3
11:30 1016 30 845 24.95 7.9 46.2 60 0.7 33.2
11:35 1016 30 846 24.98 7.4 45.3 65 1.2 34.1
11:40 1017 30.03 846 24.98 7 44.5 67 1.2 34.2
11:45 1017 30.03 846 24.98 6.7 44.1 67 1.1 33.9
11:50 1017 30.03 846 24.98 6.7 44 64 0.5 32.8
11:55 1017 30.03 846 24.98 6.8 44.3 65 0.7 33.2
12:00 1017 30.03 846 24.98 7 44.6 66 1 33.8
12:05 1017 30.03 846 24.98 7.1 44.8 63 0.6 33
12:10 1017 30.03 846 24.98 7.3 45.1 63 0.8 33.5
12:15 1017 30.03 846 24.98 7.4 45.4 63 0.8 33.4
12:20 1017 30.03 846 24.98 7.4 45.3 66 1.5 34.7
12:25 1017 30.03 846 24.98 7.1 44.7 69 1.7 35.1
12:30 1017 30.03 846 24.98 6.9 44.5 70 1.8 35.3
12:35 1017 30.03 846 24.98 7.1 44.8 69 1.8 35.2
12:40 1017 30.03 846 24.98 7.6 45.6 67 1.8 35.3
12:45 1017 30.03 846 24.98 7.8 46 60 0.6 33
12:50 1017 30.03 846 24.98 7.5 45.4 60 0.2 32.3
12:55 1017 30.03 846 24.98 7.5 45.5 62 0.7 33.3
13:00 1017 30.03 846 24.98 7.6 45.7 60 0.4 32.8
13:05 1017 30.03 846 24.98 7.7 45.8 63 1.1 33.9
13:10 1017 30.03 846 24.98 8.2 46.7 56 -0.1 31.9
13:15 1017 30.03 846 24.98 9.2 48.5 54 0.4 32.7
13:20 1017 30.03 846 24.98 10.2 50.4 41 -2.5 27.6
13:25 1017 30.03 846 24.98 10.8 51.4 39 -2.7 27.1
13:30 1017 30.03 846 24.98 11.1 51.9 36 -3.3 26
13:35 1017 30.03 846 24.98 11.2 52.2 30 -5.9 21.4
13:40 1017 30.03 846 24.98 11.2 52.2 20 -10.8 12.6
13:45 1017 30.03 846 24.98 11.6 52.9 20 -10.3 13.5
13:50 1017 30.03 846 24.98 12.3 54.2 19 -10.7 12.7
13:55 1017 30.03 846 24.98 12.2 54 19 -10.7 12.8
14:00 1017 30.03 846 24.98 12.4 54.3 18 -11.2 11.9
14:05 1017 30.03 846 24.98 12.5 54.5 17 -11.8 10.8
14:10 1017 30.03 846 24.98 12.4 54.3 18 -11.7 11
14:15 1017 30.03 846 24.98 12.6 54.6 18 -10.8 12.5
14:20 1017 30.03 846 24.98 12.7 54.9 18 -11.1 12
14:25 1017 30.03 846 24.98 12.2 53.9 17 -11.8 10.7
14:30 1017 30.03 846 24.98 11.9 53.4 17 -12.2 10.1
14:35 1017 30.03 846 24.98 12.2 53.9 18 -11.5 11.3
14:40 1017 30.03 846 24.98 12.3 54.1 18 -11.2 11.8
14:45 1017 30.03 846 24.98 12.5 54.4 18 -11.2 11.9
14:50 1017 30.03 846 24.98 12.4 54.4 19 -10.9 12.4
14:55 1017 30.03 846 24.98 12.4 54.3 19 -10.5 13.1
15:00 1017 30.03 846 24.98 12.3 54.1 18 -11.4 11.5
15:05 1017 30.03 846 24.98 12.3 54.2 18 -11.4 11.4
15:10 1017 30.03 846 24.98 12.3 54.1 18 -11.5 11.3
15:15 1017 30.03 846 24.98 12.5 54.4 17 -11.6 11.1
15:20 1017 30.03 846 24.98 12.2 54 17 -12.3 9.9
15:25 1017 30.03 847 25.01 12.1 53.8 17 -12.3 9.8
15:30 1017 30.03 846 24.98 12.1 53.8 17 -11.9 10.6
15:35 1017 30.03 847 25.01 12.1 53.7 18 -11.9 10.6
15:40 1017 30.03 847 25.01 11.8 53.3 18 -12 10.5
15:45 1018 30.06 847 25.01 11.6 52.9 18 -11.7 11
15:50 1018 30.06 847 25.01 11.6 52.9 19 -11.4 11.5
15:55 1018 30.06 847 25.01 11.4 52.5 19 -11.4 11.5
16:00 1017 30.03 847 25.01 11.7 53 19 -11.5 11.2
16:05 1018 30.06 847 25.01 11.6 53 18 -12 10.5
16:10 1018 30.06 847 25.01 11.8 53.2 17 -12.8 9
16:15 1018 30.06 847 25.01 11.2 52.1 18 -12.5 9.5
16:20 1018 30.06 847 25.01 10.9 51.6 19 -11.6 11
16:25 1018 30.06 847 25.01 10.6 51.2 20 -11.4 11.5
16:30 1018 30.06 847 25.01 10.6 51 20 -11.5 11.2
16:35 1018 30.06 847 25.01 10.4 50.7 21 -11.3 11.7
16:40 1018 30.06 847 25.01 10.3 50.5 21 -11.4 11.5
16:45 1018 30.06 847 25.01 10.4 50.6 20 -11.8 10.8
16:50 1018 30.06 848 25.04 10.4 50.7 20 -11.7 10.9
16:55 1019 30.09 848 25.04 10.4 50.6 19 -12 10.4
17:00 1019 30.09 848 25.04 10.3 50.6 20 -11.5 11.2
17:05 1019 30.09 848 25.04 10 50 21 -11.2 11.8
17:10 1019 30.09 848 25.04 9.9 49.8 22 -10.8 12.6
17:15 1019 30.09 848 25.04 9.7 49.5 23 -10.7 12.7
17:20 1019 30.09 849 25.07 9.5 49.1 23 -10.6 13
17:25 1019 30.09 849 25.07 9.5 49.1 23 -10.6 12.9
17:30 1020 30.12 849 25.07 9.6 49.2 23 -10.8 12.5
17:35 1020 30.12 849 25.07 9.5 49.1 23 -10.8 12.6
17:40 1020 30.12 849 25.07 9.4 48.9 23 -10.6 12.9
17:45 1020 30.12 849 25.07 9.2 48.6 22 -11.2 11.9
17:50 1020 30.12 849 25.07 9.1 48.3 23 -11.2 11.9
17:55 1020 30.12 849 25.07 8.9 48 24 -10.8 12.6
18:00 1020 30.12 849 25.07 8.9 48 25 -10.3 13.4
18:05 1020 30.12 849 25.07 8.9 48.1 24 -10.8 12.6
18:10 1020 30.12 850 25.1 8.9 48 24 -10.7 12.7
18:15 1021 30.15 850 25.1 8.9 48 24 -10.6 12.9
18:20 1021 30.15 850 25.1 8.8 47.9 24 -10.4 13.3
18:25 1021 30.15 850 25.1 8.8 47.9 25 -10.1 13.8
18:30 1021 30.15 850 25.1 8.7 47.6 25 -10.3 13.5
18:35 1021 30.15 851 25.13 8.5 47.3 25 -10.3 13.5
18:40 1021 30.15 851 25.13 8.3 47 26 -10 13.9
18:45 1022 30.18 851 25.13 8.2 46.8 27 -9.9 14.1
18:50 1022 30.18 851 25.13 8.1 46.6 27 -9.6 14.7
18:55 1022 30.18 851 25.13 8 46.4 28 -9.5 14.9
19:00 1022 30.18 851 25.13 8 46.4 28 -9.4 15
19:05 1022 30.18 851 25.13 8 46.3 28 -9.3 15.2
19:10 1022 30.18 851 25.13 7.9 46.2 29 -9.1 15.6
19:15 1022 30.18 852 25.16 7.9 46.1 29 -9.1 15.7
19:20 1022 30.18 852 25.16 7.8 46.1 29 -9 15.7
19:25 1023 30.21 852 25.16 7.8 46 29 -9 15.8
19:30 1023 30.21 852 25.16 7.7 45.9 29 -9 15.8
19:35 1023 30.21 852 25.16 7.7 45.8 30 -9 15.8
19:40 1023 30.21 852 25.16 7.7 45.8 30 -8.8 16.1
19:45 1023 30.21 852 25.16 7.6 45.7 30 -8.8 16.2
19:50 1023 30.21 852 25.16 7.6 45.6 30 -8.8 16.2
19:55 1023 30.21 852 25.16 7.5 45.6 31 -8.7 16.3
20:00 1023 30.21 852 25.16 7.5 45.4 31 -8.7 16.4
20:05 1023 30.21 852 25.16 7.4 45.3 31 -8.6 16.6
20:10 1023 30.21 852 25.16 7.3 45.1 32 -8.5 16.6
20:15 1023 30.21 852 25.16 7.1 44.8 32 -8.5 16.7
20:20 1023 30.21 852 25.16 7 44.5 32 -8.5 16.8
20:25 1023 30.21 852 25.16 6.8 44.3 33 -8.4 16.9
20:30 1023 30.21 853 25.19 6.7 44.1 33 -8.4 17
20:35 1023 30.21 853 25.19 6.6 43.9 34 -8.3 17.1
20:40 1024 30.24 853 25.19 6.5 43.8 34 -8.1 17.4
20:45 1024 30.24 853 25.19 6.4 43.5 35 -8 17.7
20:50 1024 30.24 853 25.19 6.3 43.4 35 -8.1 17.4
20:55 1024 30.24 853 25.19 6.4 43.4 34 -8.3 17
21:00 1024 30.24 853 25.19 6.5 43.7 34 -8.3 17
21:05 1024 30.24 853 25.19 6.6 43.8 34 -8.2 17.2
21:10 1024 30.24 853 25.19 6.6 43.8 34 -8.2 17.2
21:15 1024 30.24 853 25.19 6.5 43.7 35 -8 17.6
21:20 1024 30.24 853 25.19 6.4 43.6 35 -7.9 17.8
21:25 1024 30.24 853 25.19 6.3 43.3 35 -7.9 17.8
21:30 1024 30.24 853 25.19 6.2 43.1 36 -7.8 17.9
21:35 1024 30.24 853 25.19 6.1 42.9 36 -7.8 17.9
21:40 1024 30.24 853 25.19 6 42.8 36 -7.9 17.8
21:45 1024 30.24 853 25.19 5.9 42.6 37 -7.8 18
21:50 1024 30.24 854 25.22 5.7 42.2 38 -7.7 18.2
21:55 1024 30.24 854 25.22 5.5 41.9 38 -7.6 18.3
22:00 1025 30.27 854 25.22 5.4 41.7 39 -7.6 18.3
22:05 1025 30.27 854 25.22 5.4 41.7 39 -7.6 18.4
22:10 1025 30.27 854 25.22 5.4 41.7 39 -7.5 18.5
22:15 1025 30.27 854 25.22 5.3 41.5 40 -7.4 18.7
22:20 1025 30.27 854 25.22 5.1 41.3 40 -7.4 18.6
22:25 1025 30.27 854 25.22 5 41.1 40 -7.3 18.8
22:30 1025 30.27 854 25.22 5 41 40 -7.5 18.6
22:35 1025 30.27 854 25.22 4.9 40.9 40 -7.5 18.6
22:40 1025 30.27 854 25.22 4.9 40.7 41 -7.4 18.7
22:45 1025 30.27 854 25.22 4.7 40.5 41 -7.4 18.7
22:50 1025 30.27 854 25.22 4.7 40.4 41 -7.4 18.7
22:55 1025 30.27 854 25.22 4.6 40.3 42 -7.4 18.7
23:00 1025 30.27 854 25.22 4.5 40.2 42 -7.3 18.9
23:05 1025 30.27 854 25.22 4.4 39.9 43 -7.2 19
23:10 1025 30.27 854 25.22 4.3 39.8 43 -7.2 19
23:15 1025 30.27 854 25.22 4.1 39.3 44 -7 19.3
23:20 1025 30.27 854 25.22 3.7 38.7 45 -7.2 19.1
23:25 1025 30.27 855 25.25 3.4 38.2 46 -7.1 19.2
23:30 1025 30.27 855 25.25 3.3 37.9 46 -7.3 18.9
23:35 1025 30.27 855 25.25 3.2 37.7 47 -7.2 19.1
23:40 1025 30.27 855 25.25 2.9 37.3 47 -7.2 19
23:45 1025 30.27 855 25.25 2.9 37.2 47 -7.2 19
23:50 1025 30.27 854 25.22 2.9 37.2 48 -7.1 19.3
23:55 1025 30.27 854 25.22 2.8 37.1 48 -7.1 19.2
24:00 1025 30.27 854 25.22 2.9 37.3 47 -7.2 19